createdAt,value
2022-10-26T00:01:16.634Z,100887.28
2022-10-26T00:03:46.486Z,100886.00
2022-10-26T00:06:22.480Z,100890.97
2022-10-26T00:08:49.850Z,100888.69
2022-10-26T00:11:18.886Z,100883.00
2022-10-26T00:13:47.999Z,100881.44
2022-10-26T00:16:27.911Z,100884.84
2022-10-26T00:18:57.489Z,100878.75
2022-10-26T00:21:24.526Z,100874.81
2022-10-26T00:23:51.167Z,100882.31
2022-10-26T00:26:18.451Z,100883.03
2022-10-26T00:28:45.326Z,100877.09
2022-10-26T00:31:15.913Z,100888.13
2022-10-26T00:33:42.897Z,100888.84
2022-10-26T00:36:10.749Z,100880.63
2022-10-26T00:38:38.419Z,100891.53
2022-10-26T00:41:05.932Z,100887.13
2022-10-26T00:43:39.570Z,100893.38
2022-10-26T00:46:15.328Z,100891.09
2022-10-26T00:48:51.141Z,100894.63
2022-10-26T00:51:27.423Z,100891.63
2022-10-26T00:53:56.049Z,100889.66
2022-10-26T00:56:24.079Z,100892.06
2022-10-26T00:58:54.270Z,100888.09
2022-10-26T01:01:21.136Z,100895.03
2022-10-26T01:03:51.495Z,100899.59
2022-10-26T01:06:21.743Z,100895.03
2022-10-26T01:08:49.949Z,100895.03
2022-10-26T01:11:16.819Z,100894.91
2022-10-26T01:13:48.276Z,100898.59
2022-10-26T01:16:54.859Z,100901.44
2022-10-26T01:20:09.916Z,100891.09
2022-10-26T01:22:59.417Z,100897.47
2022-10-26T01:26:24.922Z,100887.69
2022-10-26T01:29:42.825Z,100886.72
2022-10-26T01:32:25.417Z,100885.28
2022-10-26T01:35:49.131Z,100886.72
2022-10-26T01:38:40.685Z,100893.66
2022-10-26T01:41:44.915Z,100888.13
2022-10-26T01:44:42.883Z,100890.81
2022-10-26T01:47:15.771Z,100885.72
2022-10-26T01:49:58.214Z,100883.59
2022-10-26T01:52:26.174Z,100886.41
2022-10-26T01:55:28.156Z,100883.03
2022-10-26T01:58:26.857Z,100882.84
2022-10-26T02:01:16.675Z,100890.81
2022-10-26T02:04:26.337Z,100883.56
2022-10-26T02:07:16.034Z,100886.97
2022-10-26T02:10:28.641Z,100881.75
2022-10-26T02:13:47.477Z,100872.97
2022-10-26T02:16:26.511Z,100870.25
2022-10-26T02:19:36.394Z,100870.53
2022-10-26T02:22:31.664Z,100871.25
2022-10-26T02:25:07.909Z,100869.81
2022-10-26T02:27:47.913Z,100872.94
2022-10-26T02:30:15.526Z,100869.28
2022-10-26T02:32:55.023Z,100864.84
2022-10-26T02:35:33.684Z,100872.09
2022-10-26T02:38:09.424Z,100862.44
2022-10-26T02:40:38.969Z,100869.09
2022-10-26T02:43:21.906Z,100865.41
2022-10-26T02:45:59.488Z,100858.03
2022-10-26T02:48:26.311Z,100857.63
2022-10-26T02:51:35.592Z,100856.72
2022-10-26T02:54:21.851Z,100857.63
2022-10-26T02:56:59.831Z,100855.75
2022-10-26T02:59:36.550Z,100848.22
2022-10-26T03:02:05.107Z,100847.38
2022-10-26T03:04:35.137Z,100851.81
2022-10-26T03:07:04.711Z,100851.22
2022-10-26T03:09:31.585Z,100853.91
2022-10-26T03:11:58.236Z,100847.25
2022-10-26T03:14:25.171Z,100843.25
2022-10-26T03:16:52.483Z,100842.69
2022-10-26T03:19:19.152Z,100848.34
2022-10-26T03:21:45.803Z,100847.38
2022-10-26T03:24:12.486Z,100852.69
2022-10-26T03:26:39.087Z,100852.47
2022-10-26T03:29:06.434Z,100851.00
2022-10-26T03:31:33.134Z,100849.88
2022-10-26T03:33:59.997Z,100849.56
2022-10-26T03:36:26.562Z,100846.16
2022-10-26T03:38:53.365Z,100848.31
2022-10-26T03:41:19.978Z,100850.88
2022-10-26T03:43:46.563Z,100854.38
2022-10-26T03:46:13.134Z,100851.59
2022-10-26T03:48:39.788Z,100858.78
2022-10-26T03:51:06.490Z,100848.59
2022-10-26T03:53:33.261Z,100852.84
2022-10-26T03:55:59.932Z,100851.00
2022-10-26T04:00:58.038Z,100851.84
2022-10-26T04:03:24.642Z,100850.56
2022-10-26T04:05:51.527Z,100855.47
2022-10-26T04:08:18.264Z,100851.81
2022-10-26T04:10:47.436Z,100851.03
2022-10-26T04:13:14.462Z,100851.59
2022-10-26T04:15:41.380Z,100849.03
2022-10-26T04:18:12.927Z,100851.19
2022-10-26T04:20:44.459Z,100859.50
2022-10-26T04:23:15.812Z,100863.91
2022-10-26T04:25:44.884Z,100859.47
2022-10-26T04:28:13.916Z,100860.25
2022-10-26T04:30:41.114Z,100861.81
2022-10-26T04:33:11.270Z,100859.41
2022-10-26T04:35:37.890Z,100859.25
2022-10-26T04:38:07.805Z,100860.25
2022-10-26T04:40:35.521Z,100865.03
2022-10-26T04:43:02.421Z,100866.44
2022-10-26T04:45:30.831Z,100863.03
2022-10-26T04:48:12.179Z,100881.75
2022-10-26T04:50:40.418Z,100873.78
2022-10-26T04:53:10.558Z,100881.00
2022-10-26T04:55:37.259Z,100879.97
2022-10-26T04:58:04.880Z,100879.13
2022-10-26T05:00:35.406Z,100882.59
2022-10-26T05:03:05.542Z,100875.22
2022-10-26T05:05:36.981Z,100871.34
2022-10-26T05:08:04.832Z,100895.31
2022-10-26T05:10:34.589Z,100889.06
2022-10-26T05:13:02.299Z,100888.44
2022-10-26T05:15:30.461Z,100876.13
2022-10-26T05:18:05.635Z,100877.69
2022-10-26T05:20:36.223Z,100888.31
2022-10-26T05:23:09.474Z,100879.47
2022-10-26T05:25:38.448Z,100878.75
2022-10-26T05:28:13.191Z,100873.91
2022-10-26T05:30:45.703Z,100880.50
2022-10-26T05:33:14.658Z,100879.47
2022-10-26T05:35:41.684Z,100870.09
2022-10-26T05:38:17.705Z,100874.16
2022-10-26T05:40:54.454Z,100873.97
2022-10-26T05:43:25.292Z,100880.25
2022-10-26T05:45:52.342Z,100879.34
2022-10-26T05:48:19.974Z,100888.25
2022-10-26T05:50:46.802Z,100886.16
2022-10-26T05:53:13.660Z,100889.41
2022-10-26T05:55:41.289Z,100892.31
2022-10-26T05:58:15.463Z,100893.44
2022-10-26T06:01:11.500Z,100900.78
2022-10-26T06:04:25.005Z,100893.44
2022-10-26T06:06:55.252Z,100892.03
2022-10-26T06:09:22.613Z,100890.84
2022-10-26T06:11:52.838Z,100889.63
2022-10-26T06:14:20.058Z,100889.38
2022-10-26T06:17:49.120Z,100898.13
2022-10-26T06:20:44.538Z,100904.94
2022-10-26T06:23:43.796Z,100892.06
2022-10-26T06:26:42.477Z,100896.13
2022-10-26T06:29:58.090Z,100910.22
2022-10-26T06:32:25.421Z,100907.91
2022-10-26T06:35:36.549Z,100910.44
2022-10-26T06:38:11.735Z,100916.72
2022-10-26T06:40:43.523Z,100917.66
2022-10-26T06:43:26.072Z,100909.34
2022-10-26T06:46:52.725Z,100916.03
2022-10-26T06:49:36.788Z,100920.00
2022-10-26T06:52:29.730Z,100911.44
2022-10-26T06:54:57.409Z,100913.59
2022-10-26T06:57:34.108Z,100921.00
2022-10-26T07:00:16.606Z,100916.09
2022-10-26T07:02:43.261Z,100910.88
2022-10-26T07:05:12.875Z,100914.88
2022-10-26T07:07:47.353Z,100919.00
2022-10-26T07:10:16.146Z,100928.09
2022-10-26T07:12:42.875Z,100922.47
2022-10-26T07:15:10.282Z,100930.13
2022-10-26T07:17:49.975Z,100918.69
2022-10-26T07:20:21.277Z,100924.56
2022-10-26T07:22:57.173Z,100923.34
2022-10-26T07:25:26.048Z,100922.69
2022-10-26T07:27:58.926Z,100924.13
2022-10-26T07:30:28.737Z,100933.91
2022-10-26T07:33:14.721Z,100937.75
2022-10-26T07:35:41.775Z,100928.91
2022-10-26T07:38:09.603Z,100936.88
2022-10-26T07:40:38.269Z,100936.91
2022-10-26T07:43:05.451Z,100929.97
2022-10-26T07:45:36.647Z,100940.75
2022-10-26T07:48:03.485Z,100946.22
2022-10-26T07:50:32.689Z,100947.59
2022-10-26T07:52:59.829Z,100947.13
2022-10-26T07:55:27.570Z,100945.13
2022-10-26T07:57:56.578Z,100951.56
2022-10-26T08:00:23.590Z,100957.34
2022-10-26T08:02:50.274Z,100946.34
2022-10-26T08:05:17.893Z,100948.78
2022-10-26T08:07:46.193Z,100955.94
2022-10-26T08:10:15.783Z,100963.25
2022-10-26T08:12:43.685Z,100964.84
2022-10-26T08:15:11.554Z,100964.88
2022-10-26T08:17:38.407Z,100975.75
2022-10-26T08:20:06.108Z,100976.47
2022-10-26T08:22:32.719Z,100973.34
2022-10-26T08:24:59.370Z,100979.03
2022-10-26T08:27:26.104Z,100970.59
2022-10-26T08:29:54.149Z,100976.19
2022-10-26T08:32:20.800Z,100969.91
2022-10-26T08:34:47.518Z,100968.72
2022-10-26T08:37:16.204Z,100970.25
2022-10-26T08:39:43.126Z,100966.88
2022-10-26T08:42:30.386Z,100973.81
2022-10-26T08:45:10.659Z,100962.41
2022-10-26T08:47:49.843Z,100974.91
2022-10-26T08:50:42.074Z,100960.88
2022-10-26T08:53:39.567Z,100961.66
2022-10-26T08:56:21.174Z,100959.81
2022-10-26T08:59:12.646Z,100956.34
2022-10-26T09:01:39.347Z,100945.03
2022-10-26T09:04:15.763Z,100954.41
2022-10-26T09:07:22.470Z,100952.28
2022-10-26T09:10:20.689Z,100953.53
2022-10-26T09:13:24.742Z,100950.44
2022-10-26T09:16:10.670Z,100945.91
2022-10-26T09:19:37.614Z,100947.13
2022-10-26T09:22:33.123Z,100943.03
2022-10-26T09:25:19.797Z,100956.16
2022-10-26T09:27:55.732Z,100955.84
2022-10-26T09:30:23.993Z,100962.19
2022-10-26T09:33:33.866Z,100964.03
2022-10-26T09:36:13.101Z,100965.59
2022-10-26T09:38:58.149Z,100962.69
2022-10-26T09:41:43.591Z,100961.31
2022-10-26T09:44:44.555Z,100957.09
2022-10-26T09:47:42.311Z,100946.78
2022-10-26T09:50:35.701Z,100947.59
2022-10-26T09:53:04.012Z,100948.31
2022-10-26T09:55:39.203Z,100942.09
2022-10-26T09:58:20.314Z,100939.59
2022-10-26T10:00:47.693Z,100934.94
2022-10-26T10:03:34.037Z,100940.59
2022-10-26T10:06:20.339Z,100933.91
2022-10-26T10:09:21.068Z,100942.53
2022-10-26T10:12:03.727Z,100944.38
2022-10-26T10:14:59.372Z,100951.63
2022-10-26T10:17:27.062Z,100952.22
2022-10-26T10:19:54.057Z,100960.47
2022-10-26T10:22:26.388Z,100960.59
2022-10-26T10:24:58.270Z,100971.66
2022-10-26T10:27:28.207Z,100957.41
2022-10-26T10:30:03.118Z,100961.78
2022-10-26T10:32:38.730Z,100972.50
2022-10-26T10:35:32.658Z,100964.00
2022-10-26T10:38:00.151Z,100962.81
2022-10-26T10:40:31.382Z,100961.78
2022-10-26T10:43:16.326Z,100962.81
2022-10-26T10:45:54.682Z,100955.00
2022-10-26T10:48:29.144Z,100948.56
2022-10-26T10:51:02.744Z,100943.22
2022-10-26T10:53:49.195Z,100943.69
2022-10-26T10:56:54.182Z,100938.66
2022-10-26T11:00:05.695Z,100946.06
2022-10-26T11:03:02.786Z,100947.75
2022-10-26T11:06:06.809Z,100944.38
2022-10-26T11:08:39.819Z,100953.19
2022-10-26T11:11:21.553Z,100952.81
2022-10-26T11:14:05.619Z,100954.91
2022-10-26T11:16:50.332Z,100944.78
2022-10-26T11:19:29.183Z,100957.41
2022-10-26T11:21:56.710Z,100943.63
2022-10-26T11:24:48.710Z,100954.63
2022-10-26T11:27:26.193Z,100960.19
2022-10-26T11:30:25.690Z,100966.56
2022-10-26T11:33:44.710Z,100969.44
2022-10-26T11:36:26.205Z,100960.97
2022-10-26T11:39:29.273Z,100966.19
2022-10-26T11:42:26.322Z,100966.09
2022-10-26T11:45:32.935Z,100957.31
2022-10-26T11:48:31.739Z,100955.72
2022-10-26T11:51:00.946Z,100966.25
2022-10-26T11:53:45.671Z,100957.19
2022-10-26T11:56:40.419Z,100957.97
2022-10-26T11:59:20.674Z,100969.78
2022-10-26T12:02:02.363Z,100959.75
2022-10-26T12:04:37.261Z,100954.34
2022-10-26T12:07:20.651Z,100945.97
2022-10-26T12:09:47.351Z,100949.81
2022-10-26T12:12:38.878Z,100953.44
2022-10-26T12:15:40.302Z,100955.31
2022-10-26T12:18:56.086Z,100949.34
2022-10-26T12:21:30.830Z,100948.81
2022-10-26T12:24:22.935Z,100943.59
2022-10-26T12:27:26.597Z,100946.38
2022-10-26T12:30:18.984Z,100941.41
2022-10-26T12:32:46.659Z,100944.06
2022-10-26T12:35:45.261Z,100938.16
2022-10-26T12:38:24.057Z,100937.22
2022-10-26T12:41:09.795Z,100942.09
2022-10-26T12:43:41.429Z,100938.59
2022-10-26T12:46:14.019Z,100944.78
2022-10-26T12:48:49.795Z,100957.28
2022-10-26T12:51:22.295Z,100959.84
2022-10-26T12:54:48.016Z,100953.38
2022-10-26T12:57:49.039Z,100954.75
2022-10-26T13:00:25.924Z,100960.22
2022-10-26T13:03:34.083Z,100969.88
2022-10-26T13:06:40.203Z,100963.22
2022-10-26T13:09:33.057Z,100963.50
2022-10-26T13:12:06.028Z,100965.00
2022-10-26T13:15:03.094Z,100966.66
2022-10-26T13:20:06.474Z,100960.59
2022-10-26T13:22:33.771Z,100959.09
2022-10-26T13:25:05.825Z,100955.13
2022-10-26T13:27:35.434Z,100943.34
2022-10-26T13:30:05.167Z,100944.88
2022-10-26T13:32:38.938Z,100944.69
2022-10-26T13:35:13.870Z,100951.41
2022-10-26T13:37:49.142Z,100943.03
2022-10-26T13:40:22.951Z,100943.28
2022-10-26T13:43:06.294Z,100941.16
2022-10-26T13:46:02.705Z,100953.78
2022-10-26T13:48:40.528Z,100940.09
2022-10-26T13:51:24.184Z,100946.00
2022-10-26T13:54:21.089Z,100947.16
2022-10-26T13:57:23.833Z,100941.97
2022-10-26T13:59:53.085Z,100945.09
2022-10-26T14:02:32.341Z,100948.94
2022-10-26T14:05:06.482Z,100938.78
2022-10-26T14:07:55.603Z,100949.50
2022-10-26T14:10:44.732Z,100945.91
2022-10-26T14:13:24.401Z,100947.41
2022-10-26T14:15:52.898Z,100935.97
2022-10-26T14:18:35.354Z,100939.06
2022-10-26T14:21:07.746Z,100941.88
2022-10-26T14:24:07.596Z,100932.09
2022-10-26T14:26:41.884Z,100940.84
2022-10-26T14:29:26.106Z,100948.56
2022-10-26T14:31:57.193Z,100946.53
2022-10-26T14:34:24.971Z,100952.41
2022-10-26T14:37:07.990Z,100954.88
2022-10-26T14:39:47.748Z,100948.22
2022-10-26T14:42:40.597Z,100958.38
2022-10-26T14:45:52.100Z,100951.94
2022-10-26T14:48:35.473Z,100950.09
2022-10-26T14:51:16.678Z,100944.81
2022-10-26T14:53:55.200Z,100935.97
2022-10-26T14:56:38.008Z,100936.72
2022-10-26T14:59:35.337Z,100929.84
2022-10-26T15:02:10.963Z,100940.31
2022-10-26T15:04:42.842Z,100946.72
2022-10-26T15:07:12.369Z,100944.75
2022-10-26T15:09:55.965Z,100950.41
2022-10-26T15:12:39.540Z,100949.19
2022-10-26T15:15:15.732Z,100951.38
2022-10-26T15:17:55.452Z,100948.09
2022-10-26T15:20:29.469Z,100944.09
2022-10-26T15:23:04.012Z,100947.56
2022-10-26T15:25:34.943Z,100949.66
2022-10-26T15:28:29.116Z,100947.31
2022-10-26T15:31:10.704Z,100957.97
2022-10-26T15:33:43.061Z,100953.75
2022-10-26T15:36:20.630Z,100961.06
2022-10-26T15:38:48.790Z,100954.44
2022-10-26T15:41:40.215Z,100962.25
2022-10-26T15:44:19.262Z,100960.69
2022-10-26T15:46:48.939Z,100958.50
2022-10-26T15:49:21.087Z,100959.34
2022-10-26T15:51:52.221Z,100967.00
2022-10-26T15:54:19.001Z,100969.41
2022-10-26T15:56:50.859Z,100972.28
2022-10-26T15:59:20.024Z,100965.16
2022-10-26T16:01:46.918Z,100972.09
2022-10-26T16:04:13.896Z,100986.69
2022-10-26T16:06:43.248Z,100978.22
2022-10-26T16:09:17.723Z,100983.47
2022-10-26T16:11:45.554Z,100986.34
2022-10-26T16:14:12.900Z,100993.66
2022-10-26T16:16:39.898Z,100987.19
2022-10-26T16:19:29.719Z,100980.44
2022-10-26T16:21:55.881Z,100986.19
2022-10-26T16:24:23.815Z,100984.31
2022-10-26T16:26:54.310Z,100986.88
2022-10-26T16:29:21.247Z,100982.63
2022-10-26T16:31:48.285Z,100981.59
2022-10-26T16:34:17.031Z,100980.44
2022-10-26T16:36:46.609Z,100981.75
2022-10-26T16:39:13.433Z,100974.81
2022-10-26T16:41:43.234Z,100966.34
2022-10-26T16:44:13.623Z,100974.66
2022-10-26T16:46:40.289Z,100983.16
2022-10-26T16:49:09.658Z,100983.31
2022-10-26T16:51:40.778Z,100981.28
2022-10-26T16:54:10.024Z,100984.50
2022-10-26T16:56:36.735Z,100986.03
2022-10-26T16:59:05.934Z,100985.69
2022-10-26T17:01:36.027Z,100997.88
2022-10-26T17:06:33.374Z,101005.03
2022-10-26T17:09:02.884Z,101006.69
2022-10-26T17:11:29.658Z,101001.63
2022-10-26T17:13:56.484Z,101009.41
2022-10-26T17:16:25.806Z,101019.75
2022-10-26T17:18:54.250Z,101018.75
2022-10-26T17:21:35.592Z,101005.50
2022-10-26T17:24:03.472Z,101014.81
2022-10-26T17:26:33.098Z,101019.06
2022-10-26T17:29:03.124Z,101019.56
2022-10-26T17:31:33.533Z,101020.59
2022-10-26T17:34:00.370Z,101031.44
2022-10-26T17:36:27.467Z,101039.56
2022-10-26T17:38:55.803Z,101041.44
2022-10-26T17:41:24.444Z,101041.97
2022-10-26T17:43:53.026Z,101037.03
2022-10-26T17:46:24.686Z,101046.53
2022-10-26T17:49:03.501Z,101055.31
2022-10-26T17:51:33.932Z,101052.94
2022-10-26T17:54:00.847Z,101054.41
2022-10-26T17:56:34.407Z,101073.19
2022-10-26T17:59:10.932Z,101076.88
2022-10-26T18:01:37.682Z,101084.66
2022-10-26T18:04:04.673Z,101078.41
2022-10-26T18:06:34.458Z,101094.47
2022-10-26T18:09:03.572Z,101082.94
2022-10-26T18:11:36.155Z,101091.22
2022-10-26T18:14:06.010Z,101090.66
2022-10-26T18:16:38.401Z,101095.72
2022-10-26T18:19:05.400Z,101101.63
2022-10-26T18:21:39.318Z,101104.00
2022-10-26T18:24:08.753Z,101110.22
2022-10-26T18:26:38.166Z,101111.06
2022-10-26T18:29:06.524Z,101111.59
2022-10-26T18:31:37.441Z,101112.66
2022-10-26T18:34:06.876Z,101121.28
2022-10-26T18:36:34.009Z,101116.00
2022-10-26T18:39:01.212Z,101125.59
2022-10-26T18:41:31.587Z,101120.72
2022-10-26T18:44:04.187Z,101127.31
2022-10-26T18:46:39.277Z,101128.97
2022-10-26T18:49:06.319Z,101128.75
2022-10-26T18:51:35.081Z,101136.00
2022-10-26T18:54:02.699Z,101136.47
2022-10-26T18:56:33.182Z,101143.75
2022-10-26T18:59:00.838Z,101144.09
2022-10-26T19:04:19.014Z,101146.22
2022-10-26T19:06:50.015Z,101147.97
2022-10-26T19:09:19.307Z,101149.03
2022-10-26T19:11:46.314Z,101140.28
2022-10-26T19:14:13.733Z,101141.34
2022-10-26T19:16:48.276Z,101150.06
2022-10-26T19:19:25.139Z,101144.91
2022-10-26T19:21:54.576Z,101143.41
2022-10-26T19:24:25.014Z,101155.13
2022-10-26T19:26:53.990Z,101151.94
2022-10-26T19:29:22.143Z,101152.16
2022-10-26T19:31:53.123Z,101162.31
2022-10-26T19:34:21.264Z,101165.00
2022-10-26T19:36:48.399Z,101156.19
2022-10-26T19:39:18.404Z,101163.84
2022-10-26T19:41:55.060Z,101177.81
2022-10-26T19:44:25.396Z,101178.47
2022-10-26T19:46:52.425Z,101177.81
2022-10-26T19:49:20.035Z,101184.97
2022-10-26T19:51:49.296Z,101180.03
2022-10-26T19:54:20.163Z,101187.78
2022-10-26T19:56:48.542Z,101188.34
2022-10-26T19:59:16.583Z,101201.22
2022-10-26T20:01:43.669Z,101192.88
2022-10-26T20:04:10.595Z,101203.34
2022-10-26T20:06:39.960Z,101190.44
2022-10-26T20:09:06.885Z,101203.81
2022-10-26T20:11:36.395Z,101205.66
2022-10-26T20:14:09.053Z,101202.78
2022-10-26T20:16:55.436Z,101205.94
2022-10-26T20:19:22.742Z,101206.78
2022-10-26T20:21:53.883Z,101213.31
2022-10-26T20:24:26.004Z,101216.63
2022-10-26T20:26:52.692Z,101228.50
2022-10-26T20:29:22.247Z,101224.88
2022-10-26T20:31:55.831Z,101221.94
2022-10-26T20:34:34.993Z,101232.75
2022-10-26T20:37:01.767Z,101226.09
2022-10-26T20:39:29.199Z,101224.72
2022-10-26T20:41:56.526Z,101231.97
2022-10-26T20:44:46.186Z,101226.31
2022-10-26T20:47:13.374Z,101226.09
2022-10-26T20:49:40.502Z,101230.38
2022-10-26T20:52:30.762Z,101228.50
2022-10-26T20:55:36.785Z,101232.88
2022-10-26T20:58:12.992Z,101239.69
2022-10-26T21:00:55.027Z,101246.59
2022-10-26T21:03:21.740Z,101248.66
2022-10-26T21:05:48.964Z,101243.56
2022-10-26T21:08:16.228Z,101250.66
2022-10-26T21:10:42.930Z,101246.13
2022-10-26T21:13:09.683Z,101245.72
2022-10-26T21:15:36.996Z,101246.28
2022-10-26T21:18:04.434Z,101249.69
2022-10-26T21:20:34.357Z,101251.38
2022-10-26T21:23:02.837Z,101250.31
2022-10-26T21:25:29.721Z,101259.69
2022-10-26T21:27:58.309Z,101247.47
2022-10-26T21:30:26.375Z,101252.25
2022-10-26T21:32:54.327Z,101254.53
2022-10-26T21:35:22.476Z,101251.19
2022-10-26T21:37:49.551Z,101245.31
2022-10-26T21:40:23.690Z,101254.53
2022-10-26T21:42:52.282Z,101249.53
2022-10-26T21:45:21.113Z,101261.00
2022-10-26T21:47:52.918Z,101265.38
2022-10-26T21:50:20.441Z,101255.50
2022-10-26T21:52:47.491Z,101263.63
2022-10-26T21:55:15.467Z,101263.00
2022-10-26T21:57:42.165Z,101255.72
2022-10-26T22:00:10.268Z,101265.94
2022-10-26T22:02:36.918Z,101273.06
2022-10-26T22:05:11.081Z,101272.22
2022-10-26T22:07:37.592Z,101274.47
2022-10-26T22:10:10.755Z,101275.72
2022-10-26T22:12:37.990Z,101260.16
2022-10-26T22:15:05.874Z,101273.22
2022-10-26T22:17:40.413Z,101266.78
2022-10-26T22:20:18.701Z,101275.28
2022-10-26T22:22:45.339Z,101266.56
2022-10-26T22:25:11.976Z,101266.41
2022-10-26T22:27:38.593Z,101265.94
2022-10-26T22:30:06.492Z,101270.88
2022-10-26T22:32:33.174Z,101263.03
2022-10-26T22:35:10.800Z,101273.72
2022-10-26T22:37:44.795Z,101273.38
2022-10-26T22:40:12.242Z,101282.09
2022-10-26T22:42:38.912Z,101276.47
2022-10-26T22:45:06.570Z,101273.84
2022-10-26T22:47:33.168Z,101283.75
2022-10-26T22:49:59.796Z,101286.22
2022-10-26T22:52:26.660Z,101281.66
2022-10-26T22:54:53.318Z,101280.19
2022-10-26T22:57:20.008Z,101286.13
2022-10-26T22:59:46.760Z,101280.09
2022-10-26T23:02:13.666Z,101283.03
2022-10-26T23:04:40.457Z,101296.69
2022-10-26T23:07:07.095Z,101289.25
2022-10-26T23:09:33.742Z,101283.88
2022-10-26T23:12:00.431Z,101289.16
2022-10-26T23:14:27.245Z,101286.78
2022-10-26T23:16:53.952Z,101301.22
2022-10-26T23:19:20.586Z,101302.00
2022-10-26T23:21:47.223Z,101303.63
2022-10-26T23:24:13.873Z,101309.66
2022-10-26T23:26:40.531Z,101304.84
2022-10-26T23:29:07.187Z,101316.28
2022-10-26T23:31:33.766Z,101315.94
2022-10-26T23:34:00.440Z,101317.84
2022-10-26T23:36:26.994Z,101316.53
2022-10-26T23:38:53.900Z,101322.13
2022-10-26T23:41:20.686Z,101320.66
2022-10-26T23:43:47.340Z,101316.38
2022-10-26T23:46:14.166Z,101324.44
2022-10-26T23:48:40.997Z,101319.59
2022-10-26T23:51:07.708Z,101319.59
2022-10-26T23:53:34.602Z,101309.34
2022-10-26T23:56:01.805Z,101319.28
2022-10-26T23:58:28.540Z,101316.28
